Loma Linda, Missouri
Current Conditions -  °F | °C
As of 6:53 AM on Wednesday 26 Nov 2014 (Local Time) from KJLN Reporting Station
Overcast Overcast  
Wind Chill: 34°   Ceiling: 7000
Heat Index: 41°   Visibility: 10mi
Dew Point: 25°   Wind: 13mph
Humidity: 53%   Direction: 300°WNW
Pressure: 30"   Gusts: NA
Location:  37.0039°N, 94.5308°W
Report Text: KJLN 261253Z 30011KT 10SM BKN070 OVC090 05/M04 A3000 RMK AO2 SLP162 T00501039
Loading
Personal Weather Stations






























Interactive Weather Map New forecast layout! Learn more

10-Day Weather Forecast

Advertisements
Track Severe Weather on mobile